Time;durP1;ratioP1;P1;durP2;ratioP2;P2;SDS_P1;SDS_P2;PMS_P1;PMS_P2;Temp;Humidity;BMP_temperature;BMP_pressure;BME280_temperature;BME280_humidity;BME280_pressure;Samples;Min_cycle;Max_cycle;Signal;HPM_P1;HPM_P2
2022/03/08 00:00:36;;;;;;;22.65;15.07;;;;;;;2.16;64.58;102382.34;7388647;19;20025;-67
2022/03/08 00:03:05;;;;;;;23.00;15.23;;;;;;;2.24;65.02;102380.75;7385317;19;20443;-67
2022/03/08 00:05:34;;;;;;;26.35;15.85;;;;;;;2.25;64.17;102382.50;7390838;19;20038;-68
2022/03/08 00:08:07;;;;;;;23.45;15.55;;;;;;;2.27;64.10;102385.13;7387018;19;20018;-67
2022/03/08 00:10:36;;;;;;;25.30;15.32;;;;;;;2.22;64.16;102377.25;7387882;19;20014;-67
2022/03/08 00:13:06;;;;;;;22.67;15.50;;;;;;;2.17;64.35;102377.19;7388991;19;20450;-68
2022/03/08 00:15:35;;;;;;;23.02;15.18;;;;;;;2.13;64.16;102375.41;7388216;19;20014;-67
2022/03/08 00:18:04;;;;;;;25.80;15.00;;;;;;;2.05;64.42;102371.84;7389836;19;20023;-67
2022/03/08 00:20:33;;;;;;;24.85;15.60;;;;;;;2.08;64.47;102372.75;7387231;19;20475;-67
2022/03/08 00:23:02;;;;;;;23.08;14.98;;;;;;;2.16;64.40;102366.84;7385170;19;20019;-67
2022/03/08 00:25:35;;;;;;;26.92;15.93;;;;;;;2.10;64.12;102359.84;7385891;19;20015;-66
2022/03/08 00:28:04;;;;;;;23.38;15.32;;;;;;;2.03;64.24;102356.28;7386979;19;20018;-67
2022/03/08 00:30:35;;;;;;;26.50;15.88;;;;;;;2.08;64.45;102356.38;7385670;19;20014;-68
2022/03/08 00:33:05;;;;;;;26.58;15.98;;;;;;;2.07;64.14;102352.91;7392530;19;20010;-66
2022/03/08 00:35:35;;;;;;;24.20;15.38;;;;;;;2.10;63.86;102354.69;7389053;19;20021;-67
2022/03/08 00:38:05;;;;;;;23.30;14.75;;;;;;;2.09;63.54;102355.50;7393577;19;20478;-67
2022/03/08 00:40:37;;;;;;;23.10;14.50;;;;;;;2.01;63.67;102349.38;7394414;19;20018;-67
2022/03/08 00:43:08;;;;;;;22.65;14.95;;;;;;;2.00;63.78;102345.91;7390819;19;20074;-67
2022/03/08 00:45:37;;;;;;;22.90;14.60;;;;;;;2.01;63.29;102357.13;7396910;19;20475;-67
2022/03/08 00:48:07;;;;;;;21.92;14.52;;;;;;;1.99;63.35;102351.94;7394169;19;20470;-68
2022/03/08 00:50:38;;;;;;;23.17;14.80;;;;;;;2.01;62.90;102341.63;7394322;19;20021;-68
2022/03/08 00:53:08;;;;;;;21.83;14.30;;;;;;;2.06;62.80;102346.03;7395063;19;20018;-69
2022/03/08 00:55:40;;;;;;;21.00;14.45;;;;;;;2.05;63.04;102343.41;7394354;19;20091;-69
2022/03/08 00:58:09;;;;;;;26.85;14.90;;;;;;;2.02;62.84;102340.75;7391705;19;20025;-68
2022/03/08 01:00:40;;;;;;;21.77;14.80;;;;;;;1.97;62.80;102334.66;7393432;19;20011;-67
2022/03/08 01:03:10;;;;;;;20.15;14.27;;;;;;;1.90;63.16;102342.28;7397691;19;20022;-69
2022/03/08 01:05:41;;;;;;;21.88;14.15;;;;;;;1.94;62.86;102337.19;7392373;19;20034;-69
2022/03/08 01:08:10;;;;;;;21.40;14.05;;;;;;;1.88;63.13;102340.56;7391879;19;20011;-66
2022/03/08 01:10:42;;;;;;;23.63;14.77;;;;;;;1.86;63.27;102331.88;7392525;19;20023;-66
2022/03/08 01:13:11;;;;;;;23.50;14.52;;;;;;;1.81;63.08;102325.78;7396363;19;20007;-67
2022/03/08 01:15:40;;;;;;;25.02;14.80;;;;;;;1.80;63.03;102329.22;7393229;19;20010;-70
2022/03/08 01:18:08;;;;;;;20.60;14.57;;;;;;;1.85;63.36;102327.59;7393225;19;20034;-67
2022/03/08 01:20:38;;;;;;;20.70;14.05;;;;;;;1.77;63.09;102329.16;7393179;19;20020;-69
2022/03/08 01:23:07;;;;;;;21.80;14.10;;;;;;;1.76;63.35;102332.59;7391861;19;20028;-69
2022/03/08 01:25:39;;;;;;;23.10;15.25;;;;;;;1.80;63.58;102334.38;7393665;19;20011;-67
2022/03/08 01:28:11;;;;;;;21.50;14.00;;;;;;;1.72;63.29;102334.25;7392768;19;20030;-67
2022/03/08 01:30:40;;;;;;;22.40;14.47;;;;;;;1.71;63.49;102329.94;7394226;19;20511;-68
2022/03/08 01:33:09;;;;;;;21.77;14.10;;;;;;;1.68;63.52;102324.72;7391910;19;20448;-68
2022/03/08 01:35:38;;;;;;;22.17;14.20;;;;;;;1.65;63.36;102329.84;7393113;19;20360;-68
2022/03/08 01:38:07;;;;;;;24.63;14.20;;;;;;;1.72;63.02;102324.78;7390151;19;20045;-67
2022/03/08 01:40:36;;;;;;;24.33;14.30;;;;;;;1.63;63.69;102323.75;7390871;19;20384;-68
2022/03/08 01:43:05;;;;;;;23.98;14.60;;;;;;;1.64;63.00;102322.91;7390215;19;20066;-67
2022/03/08 01:45:37;;;;;;;21.02;13.60;;;;;;;1.62;63.13;102317.72;7394729;19;20494;-68
2022/03/08 01:48:06;;;;;;;23.40;14.55;;;;;;;1.61;63.23;102309.94;7391952;19;20014;-67
2022/03/08 01:50:35;;;;;;;24.63;14.30;;;;;;;1.64;63.94;102300.53;7390180;19;20531;-66
2022/03/08 01:53:05;;;;;;;20.35;14.25;;;;;;;1.67;63.05;102302.28;7392984;19;20486;-67
2022/03/08 01:55:34;;;;;;;20.48;13.55;;;;;;;1.59;63.08;102297.00;7392800;19;20010;-67
2022/03/08 01:58:03;;;;;;;22.77;13.82;;;;;;;1.57;63.16;102297.81;7391807;19;20023;-68
2022/03/08 02:00:33;;;;;;;20.63;13.40;;;;;;;1.56;63.06;102294.34;7393950;19;20439;-67
2022/03/08 02:03:06;;;;;;;21.52;13.48;;;;;;;1.59;62.40;102294.44;7391950;19;20099;-68
2022/03/08 02:05:35;;;;;;;20.02;13.45;;;;;;;1.52;62.51;102290.84;7392290;19;20029;-68
2022/03/08 02:08:04;;;;;;;18.92;12.43;;;;;;;1.59;62.07;102281.50;7389718;19;20019;-67
2022/03/08 02:10:32;;;;;;;22.15;12.85;;;;;;;1.55;61.96;102279.72;7389650;19;20034;-67
2022/03/08 02:13:01;;;;;;;20.15;13.32;;;;;;;1.61;61.83;102279.81;7392749;19;20011;-68
2022/03/08 02:15:31;;;;;;;19.08;12.07;;;;;;;1.65;61.67;102273.84;7393973;19;20367;-67
2022/03/08 02:18:02;;;;;;;18.00;12.48;;;;;;;1.67;61.34;102266.97;7390395;19;20023;-67
2022/03/08 02:20:34;;;;;;;19.33;11.75;;;;;;;1.61;61.18;102271.19;7390998;19;20021;-68
2022/03/08 02:23:06;;;;;;;18.30;12.32;;;;;;;1.54;61.39;102268.50;7388808;19;20014;-67
2022/03/08 02:25:35;;;;;;;;;;;;;;;1.56;61.31;102268.50;7392088;19;20017;-66
2022/03/08 02:28:04;;;;;;;16.85;11.50;;;;;;;1.54;61.29;102263.31;7388640;19;19929;-67
2022/03/08 02:30:33;;;;;;;17.67;11.57;;;;;;;1.55;61.40;102267.66;7393345;19;20017;-67
2022/03/08 02:33:02;;;;;;;17.45;10.65;;;;;;;1.44;61.06;102261.44;7391632;19;20155;-67
2022/03/08 02:35:33;;;;;;;18.67;11.60;;;;;;;1.51;61.17;102252.94;7390944;19;20026;-67
2022/03/08 02:38:04;;;;;;;15.48;10.68;;;;;;;1.52;60.63;102252.09;7390693;19;20014;-67
2022/03/08 02:40:38;;;;;;;17.85;11.27;;;;;;;1.42;61.15;102249.34;7389016;19;20490;-67
2022/03/08 02:43:09;;;;;;;16.02;11.23;;;;;;;1.41;61.21;102255.38;7392443;19;20406;-66
2022/03/08 02:45:38;;;;;;;17.27;11.88;;;;;;;1.41;61.20;102247.63;7390238;19;20033;-66
2022/03/08 02:48:08;;;;;;;15.60;10.60;;;;;;;1.40;61.19;102248.44;7390171;19;20056;-66
2022/03/08 02:50:37;;;;;;;15.00;10.80;;;;;;;1.41;60.79;102245.03;7389705;19;20025;-66
2022/03/08 02:53:07;;;;;;;19.50;10.55;;;;;;;1.49;60.49;102257.22;7390818;19;20018;-67
2022/03/08 02:55:39;;;;;;;16.48;11.13;;;;;;;1.43;60.18;102249.34;7391117;19;20130;-66
2022/03/08 02:58:09;;;;;;;19.02;10.68;;;;;;;1.44;59.98;102250.25;7387691;19;20019;-67
2022/03/08 03:00:38;;;;;;;16.13;9.90;;;;;;;1.42;60.22;102249.34;7387999;19;20035;-66
2022/03/08 03:03:08;;;;;;;16.65;10.35;;;;;;;1.42;59.92;102252.81;7388946;19;20023;-67
2022/03/08 03:05:38;;;;;;;14.93;9.82;;;;;;;1.45;59.41;102244.22;7390377;19;20099;-66
2022/03/08 03:08:08;;;;;;;17.17;10.50;;;;;;;1.33;59.89;102240.63;7388880;19;20018;-66
2022/03/08 03:10:40;;;;;;;14.48;9.55;;;;;;;1.32;59.77;102240.59;7390515;19;20010;-66
2022/03/08 03:13:09;;;;;;;13.13;10.00;;;;;;;1.36;60.17;102242.34;7392879;19;20476;-69
2022/03/08 03:15:37;;;;;;;17.02;9.88;;;;;;;1.37;59.61;102242.38;7393841;19;20015;-67
2022/03/08 03:18:11;;;;;;;13.70;9.55;;;;;;;1.40;59.55;102238.13;7388686;19;20132;-67
2022/03/08 03:20:40;;;;;;;16.90;10.23;;;;;;;1.34;59.66;102244.06;7389035;19;20030;-66
2022/03/08 03:23:09;;;;;;;16.88;10.10;;;;;;;1.33;59.64;102238.03;7388563;19;20022;-67
2022/03/08 03:25:41;;;;;;;15.80;10.23;;;;;;;1.25;60.05;102242.19;7389450;19;20018;-66
2022/03/08 03:28:09;;;;;;;13.23;9.57;;;;;;;1.25;59.96;102241.28;7389134;19;20027;-64
2022/03/08 03:30:38;;;;;;;12.82;9.43;;;;;;;1.28;60.05;102243.97;7388035;19;20029;-67
2022/03/08 03:33:07;;;;;;;16.52;10.32;;;;;;;1.28;59.96;102228.47;7388766;19;20026;-66
2022/03/08 03:35:36;;;;;;;15.00;9.68;;;;;;;1.27;59.70;102239.63;7388939;19;20034;-66
2022/03/08 03:38:05;;;;;;;15.27;9.93;;;;;;;1.29;59.92;102231.06;7390174;19;20022;-67
2022/03/08 03:40:34;;;;;;;13.70;9.80;;;;;;;1.24;59.81;102231.84;7388475;19;20003;-67
2022/03/08 03:43:06;;;;;;;16.00;9.48;;;;;;;1.25;59.88;102239.59;7388867;19;20130;-68
2022/03/08 03:45:35;;;;;;;15.10;9.70;;;;;;;1.28;59.75;102234.50;7389750;19;20014;-66
2022/03/08 03:48:03;;;;;;;14.88;9.75;;;;;;;1.22;59.67;102229.22;7387640;19;20022;-67
2022/03/08 03:50:33;;;;;;;15.13;9.25;;;;;;;1.18;60.25;102235.19;7388456;19;20015;-67
2022/03/08 03:53:01;;;;;;;15.25;9.63;;;;;;;1.11;60.44;102236.78;7392444;19;20025;-67
2022/03/08 03:55:30;;;;;;;13.82;10.27;;;;;;;1.15;59.91;102235.13;7393518;19;20023;-66
2022/03/08 03:57:59;;;;;;;19.50;9.73;;;;;;;1.03;59.93;102228.00;7387012;19;20026;-67
2022/03/08 04:00:31;;;;;;;15.38;10.00;;;;;;;1.09;60.09;102235.00;7387650;19;20027;-66
2022/03/08 04:03:00;;;;;;;15.32;9.63;;;;;;;1.08;60.14;102230.69;7387806;19;20019;-67
2022/03/08 04:05:29;;;;;;;13.35;9.25;;;;;;;1.04;60.33;102233.19;7389649;19;20032;-67
2022/03/08 04:07:58;;;;;;;15.07;10.35;;;;;;;1.02;60.21;102221.13;7385152;19;20022;-62
2022/03/08 04:10:27;;;;;;;14.15;9.80;;;;;;;0.93;60.57;102215.78;7395026;19;20010;-63
2022/03/08 04:12:55;;;;;;;13.30;9.25;;;;;;;0.95;60.36;102217.56;7397766;19;20030;-59
2022/03/08 04:15:24;;;;;;;12.85;9.02;;;;;;;0.98;60.41;102207.28;7397227;19;20340;-62
2022/03/08 04:17:56;;;;;;;12.88;9.38;;;;;;;1.08;60.51;102213.50;7396599;19;20011;-62
2022/03/08 04:20:25;;;;;;;13.63;9.60;;;;;;;1.02;60.33;102205.66;7395160;19;20010;-62
2022/03/08 04:22:55;;;;;;;15.18;9.27;;;;;;;0.93;60.49;102202.88;7394785;19;20482;-62
2022/03/08 04:25:25;;;;;;;15.80;9.57;;;;;;;1.02;60.13;102203.94;7395644;19;20036;-61
2022/03/08 04:27:54;;;;;;;13.20;9.05;;;;;;;0.95;60.20;102201.22;7395325;19;20018;-62
2022/03/08 04:30:23;;;;;;;12.95;9.23;;;;;;;1.03;60.18;102203.09;7393689;19;20022;-62
2022/03/08 04:32:52;;;;;;;13.77;8.95;;;;;;;1.00;59.86;102197.88;7397878;19;20006;-63
2022/03/08 04:35:24;;;;;;;15.15;9.80;;;;;;;0.93;60.24;102200.31;7396243;19;20060;-62
2022/03/08 04:37:53;;;;;;;13.07;9.23;;;;;;;0.99;59.71;102198.72;7394685;19;20018;-63
2022/03/08 04:40:22;;;;;;;14.93;9.38;;;;;;;1.01;59.57;102207.34;7392632;19;20010;-62
2022/03/08 04:42:51;;;;;;;14.73;9.70;;;;;;;0.99;60.04;102203.88;7393906;19;20015;-63
2022/03/08 04:45:20;;;;;;;14.75;9.25;;;;;;;1.03;59.50;102205.66;7395018;19;20027;-62
2022/03/08 04:47:49;;;;;;;13.25;8.90;;;;;;;1.03;59.46;102205.66;7392982;19;20478;-63
2022/03/08 04:50:18;;;;;;;12.60;9.00;;;;;;;1.04;59.19;102209.09;7393705;19;20352;-63
2022/03/08 04:52:51;;;;;;;15.35;9.23;;;;;;;1.06;59.71;102211.72;7392956;19;20011;-64
2022/03/08 04:55:22;;;;;;;15.30;9.38;;;;;;;1.01;59.07;102204.75;7394235;19;20026;-62
2022/03/08 04:57:56;;;;;;;15.05;9.70;;;;;;;1.06;59.24;102212.59;7391889;19;20042;-64
2022/03/08 05:00:27;;;;;;;13.48;9.40;;;;;;;1.01;59.23;102215.09;7393248;19;20019;-62
2022/03/08 05:02:56;;;;;;;16.10;9.45;;;;;;;0.99;59.27;102205.59;7393905;19;20018;-63
2022/03/08 05:05:24;;;;;;;14.63;9.55;;;;;;;0.92;59.64;102201.13;7394150;19;20332;-61
2022/03/08 05:07:56;;;;;;;14.38;8.90;;;;;;;0.99;59.30;102192.69;7394138;19;20349;-64
2022/03/08 05:10:25;;;;;;;16.38;9.15;;;;;;;1.06;59.21;102193.66;7392003;19;20015;-61
2022/03/08 05:12:54;;;;;;;16.20;9.65;;;;;;;0.97;59.16;102192.63;7394228;19;20015;-62
2022/03/08 05:15:23;;;;;;;14.05;9.63;;;;;;;1.01;60.04;102191.84;7393544;19;20014;-62
2022/03/08 05:17:52;;;;;;;13.80;9.43;;;;;;;0.97;59.35;102196.94;7393686;19;20048;-62
2022/03/08 05:20:21;;;;;;;15.07;10.00;;;;;;;0.93;59.38;102193.44;7392056;19;20011;-63
2022/03/08 05:22:50;;;;;;;13.10;9.20;;;;;;;0.96;59.47;102193.50;7392672;19;20014;-62
2022/03/08 05:25:21;;;;;;;14.27;9.30;;;;;;;0.96;59.45;102195.19;7393205;19;20022;-63
2022/03/08 05:27:50;;;;;;;14.88;10.30;;;;;;;0.89;59.60;102194.22;7395737;19;20352;-62
2022/03/08 05:30:19;;;;;;;13.70;10.25;;;;;;;0.90;59.90;102195.09;7392744;19;20018;-62
2022/03/08 05:32:48;;;;;;;14.70;10.40;;;;;;;0.85;59.84;102192.44;7393239;19;20021;-62
2022/03/08 05:35:17;;;;;;;15.38;10.52;;;;;;;0.88;60.35;102194.22;7393397;19;20007;-62
2022/03/08 05:37:46;;;;;;;15.82;10.15;;;;;;;0.84;59.90;102190.69;7392295;19;20018;-62
2022/03/08 05:40:15;;;;;;;14.55;10.10;;;;;;;0.75;60.29;102188.81;7392720;19;20439;-62
2022/03/08 05:42:46;;;;;;;16.85;10.57;;;;;;;0.77;59.97;102187.13;7397411;19;20010;-63
2022/03/08 05:45:16;;;;;;;15.25;10.30;;;;;;;0.71;60.25;102183.56;7390440;19;20014;-62
2022/03/08 05:47:44;;;;;;;16.17;10.98;;;;;;;0.73;60.06;102187.94;7392440;19;20420;-62
2022/03/08 05:50:15;;;;;;;18.38;11.13;;;;;;;0.70;60.20;102190.44;7391510;19;20014;-62
2022/03/08 05:52:43;;;;;;;14.38;10.02;;;;;;;0.70;60.63;102187.84;7392114;19;20030;-62
2022/03/08 05:55:12;;;;;;;18.48;10.90;;;;;;;0.81;60.83;102195.78;7392371;19;20329;-61
2022/03/08 05:57:42;;;;;;;14.82;10.45;;;;;;;0.80;59.87;102183.72;7394640;19;20011;-62
2022/03/08 06:00:15;;;;;;;15.98;10.65;;;;;;;0.74;60.34;102192.22;7391376;19;20034;-63
2022/03/08 06:02:44;;;;;;;15.23;10.05;;;;;;;0.71;60.10;102191.31;7392881;19;20014;-62
2022/03/08 06:05:13;;;;;;;14.57;10.05;;;;;;;0.69;59.95;102188.72;7389748;19;20116;-61
2022/03/08 06:07:42;;;;;;;18.13;10.52;;;;;;;0.74;60.11;102194.81;7394444;19;20014;-59
2022/03/08 06:10:12;;;;;;;16.65;10.68;;;;;;;0.75;59.74;102191.38;7401832;19;20022;-62
2022/03/08 06:12:41;;;;;;;15.43;10.50;;;;;;;0.70;60.33;102190.44;7401479;19;20015;-62
2022/03/08 06:15:14;;;;;;;14.65;10.02;;;;;;;0.73;60.22;102194.78;7402853;19;20010;-62
2022/03/08 06:17:42;;;;;;;;;;;;;;;0.72;60.26;102182.72;7399635;19;20010;-64
2022/03/08 06:20:12;;;;;;;15.68;10.63;;;;;;;0.73;60.47;102190.50;7397195;19;20278;-66
2022/03/08 06:22:41;;;;;;;14.43;10.50;;;;;;;0.71;60.26;102199.91;7397757;19;20748;-61
2022/03/08 06:25:11;;;;;;;14.55;9.70;;;;;;;0.74;60.27;102199.09;7396830;19;20010;-62
2022/03/08 06:27:40;;;;;;;16.27;10.77;;;;;;;0.72;60.49;102198.19;7393797;19;20235;-62
2022/03/08 06:30:11;;;;;;;15.07;11.07;;;;;;;0.77;60.14;102202.59;7394770;19;20015;-61
2022/03/08 06:32:42;;;;;;;17.00;10.82;;;;;;;0.82;60.20;102200.13;7393407;19;20018;-60
2022/03/08 06:35:13;;;;;;;14.90;10.40;;;;;;;0.79;60.04;102200.94;7395278;19;20010;-61
2022/03/08 06:37:42;;;;;;;15.93;10.65;;;;;;;0.85;59.79;102207.91;7398491;19;20014;-61
2022/03/08 06:40:12;;;;;;;16.02;10.52;;;;;;;0.83;60.13;102210.47;7398167;19;20011;-60
2022/03/08 06:42:41;;;;;;;15.30;10.40;;;;;;;0.91;59.82;102208.03;7393202;19;20018;-62
2022/03/08 06:45:10;;;;;;;17.33;10.93;;;;;;;0.95;59.42;102212.41;7390559;19;20352;-62
2022/03/08 06:47:40;;;;;;;16.20;10.25;;;;;;;1.06;59.60;102199.69;7390719;19;20025;-61
2022/03/08 06:50:12;;;;;;;14.43;10.63;;;;;;;1.05;59.23;102205.69;7390077;19;20025;-62
2022/03/08 06:52:41;;;;;;;15.95;10.48;;;;;;;1.04;59.22;102207.38;7396364;19;20014;-62
2022/03/08 06:55:11;;;;;;;18.80;10.90;;;;;;;1.05;59.19;102210.84;7401252;19;20495;-63
2022/03/08 06:57:40;;;;;;;17.33;10.75;;;;;;;1.10;59.60;102213.50;7407299;19;20014;-60
2022/03/08 07:00:11;;;;;;;16.67;10.50;;;;;;;1.17;59.19;102211.06;7406442;19;20133;-62
2022/03/08 07:02:39;;;;;;;16.50;10.90;;;;;;;1.23;59.18;102212.88;7405166;19;20118;-61
2022/03/08 07:05:11;;;;;;;19.58;11.40;;;;;;;1.17;58.85;102215.34;7402159;19;20332;-61
2022/03/08 07:07:40;;;;;;;19.73;11.47;;;;;;;1.17;58.83;102223.09;7396495;19;20014;-60
2022/03/08 07:10:10;;;;;;;16.85;10.65;;;;;;;1.23;59.05;102222.34;7395805;19;20279;-62
2022/03/08 07:12:39;;;;;;;14.82;10.40;;;;;;;1.27;58.88;102212.09;7395629;19;20017;-60
2022/03/08 07:15:09;;;;;;;17.23;11.25;;;;;;;1.31;58.98;102220.75;7393156;19;20479;-62
2022/03/08 07:17:40;;;;;;;18.80;11.48;;;;;;;1.36;58.44;102217.41;7393778;19;20026;-61
2022/03/08 07:20:14;;;;;;;17.10;11.25;;;;;;;1.37;58.83;102219.13;7394462;19;20011;-61
2022/03/08 07:22:43;;;;;;;16.92;10.50;;;;;;;1.42;58.46;102214.06;7393277;19;20486;-62
2022/03/08 07:25:15;;;;;;;17.40;10.93;;;;;;;1.37;58.34;102213.09;7393018;19;20401;-60
2022/03/08 07:27:45;;;;;;;17.50;11.70;;;;;;;1.39;58.58;102211.44;7397692;19;20037;-61
2022/03/08 07:30:14;;;;;;;19.58;11.63;;;;;;;1.49;58.15;102210.75;7393880;19;20019;-63
2022/03/08 07:32:43;;;;;;;19.02;11.80;;;;;;;1.52;57.91;102209.94;7396931;19;20015;-62
2022/03/08 07:35:15;;;;;;;17.63;11.52;;;;;;;1.59;58.04;102216.91;7393027;19;20021;-59
2022/03/08 07:37:44;;;;;;;18.97;11.33;;;;;;;1.66;58.38;102218.75;7392695;19;20021;-63
2022/03/08 07:40:14;;;;;;;18.10;11.73;;;;;;;1.73;58.16;102215.41;7393217;19;20018;-61
2022/03/08 07:42:43;;;;;;;16.52;11.30;;;;;;;1.78;57.42;102217.16;7393172;19;20019;-60
2022/03/08 07:45:12;;;;;;;16.63;11.23;;;;;;;1.88;58.40;102216.47;7395160;19;20029;-62
2022/03/08 07:47:41;;;;;;;17.77;11.65;;;;;;;1.94;57.34;102208.81;7398486;19;20018;-62
2022/03/08 07:50:12;;;;;;;19.50;12.15;;;;;;;1.93;57.48;102208.78;7397514;19;20014;-62
2022/03/08 07:52:43;;;;;;;17.98;12.15;;;;;;;2.03;57.60;102210.66;7398437;19;20010;-62
2022/03/08 07:55:12;;;;;;;17.77;11.38;;;;;;;1.97;57.37;102220.91;7400320;19;20025;-63
2022/03/08 07:57:41;;;;;;;18.05;11.63;;;;;;;2.07;57.58;102213.28;7400261;19;20011;-63
2022/03/08 08:00:12;;;;;;;16.95;11.23;;;;;;;2.15;57.68;102230.63;7397022;19;20013;-64
2022/03/08 08:02:41;;;;;;;16.90;12.38;;;;;;;2.28;57.35;102223.91;7398875;19;20347;-63
2022/03/08 08:05:11;;;;;;;19.48;12.13;;;;;;;2.35;56.98;102225.72;7398981;19;20487;-63
2022/03/08 08:07:42;;;;;;;19.52;11.98;;;;;;;2.42;57.19;102230.09;7401584;19;20432;-63
2022/03/08 08:10:12;;;;;;;17.25;11.40;;;;;;;2.44;56.38;102223.25;7405267;19;20006;-63
2022/03/08 08:12:41;;;;;;;16.40;11.50;;;;;;;2.56;56.64;102227.69;7400725;19;20471;-62
2022/03/08 08:15:11;;;;;;;22.05;11.45;;;;;;;2.68;56.36;102227.84;7400206;19;20014;-61
2022/03/08 08:17:40;;;;;;;18.88;10.82;;;;;;;2.79;55.68;102234.84;7403536;19;20011;-61
2022/03/08 08:20:10;;;;;;;18.92;10.70;;;;;;;2.87;55.25;102228.91;7399147;19;20502;-62
2022/03/08 08:22:42;;;;;;;17.63;11.00;;;;;;;2.99;54.85;102230.75;7403029;19;20006;-64
2022/03/08 08:25:12;;;;;;;17.13;10.97;;;;;;;2.91;55.01;102228.09;7400171;19;20054;-64
2022/03/08 08:27:41;;;;;;;16.95;11.10;;;;;;;2.97;54.92;102229.88;7401097;19;20025;-62
2022/03/08 08:30:11;;;;;;;14.32;10.30;;;;;;;3.16;54.54;102230.06;7400206;19;20006;-64
2022/03/08 08:32:41;;;;;;;15.90;11.00;;;;;;;3.32;54.46;102231.06;7400452;19;20011;-61
2022/03/08 08:35:10;;;;;;;16.98;11.20;;;;;;;3.39;53.90;102225.06;7401193;19;20019;-62
2022/03/08 08:37:39;;;;;;;16.90;11.00;;;;;;;3.45;54.47;102228.59;7399379;19;20018;-63
2022/03/08 08:40:12;;;;;;;14.35;10.07;;;;;;;3.59;53.89;102225.22;7396754;19;20015;-62
2022/03/08 08:42:41;;;;;;;17.58;10.55;;;;;;;3.69;53.70;102223.56;7397545;19;20030;-63
2022/03/08 08:45:13;;;;;;;16.52;10.43;;;;;;;3.73;53.51;102213.22;7395603;19;20010;-63
2022/03/08 08:47:42;;;;;;;13.43;9.93;;;;;;;3.88;52.41;102211.59;7396581;19;20099;-63
2022/03/08 08:50:12;;;;;;;12.88;9.77;;;;;;;4.08;53.04;102209.09;7396227;19;20010;-64
2022/03/08 08:52:41;;;;;;;17.45;9.75;;;;;;;4.19;52.06;102204.00;7396059;19;20019;-62
2022/03/08 08:55:12;;;;;;;11.48;9.48;;;;;;;4.37;51.13;102201.47;7392868;19;20078;-62
2022/03/08 08:57:41;;;;;;;13.93;9.20;;;;;;;4.47;50.76;102195.44;7396689;19;20026;-63
2022/03/08 09:00:12;;;;;;;12.13;8.35;;;;;;;4.54;50.00;102204.09;7397928;19;20014;-64
2022/03/08 09:02:43;;;;;;;13.40;9.20;;;;;;;4.57;49.27;102193.75;7395711;19;20015;-64
2022/03/08 09:05:13;;;;;;;12.25;8.73;;;;;;;4.73;49.28;102196.38;7394925;19;20048;-63
2022/03/08 09:07:41;;;;;;;13.18;8.95;;;;;;;4.88;48.85;102190.34;7397391;19;20459;-63
2022/03/08 09:10:14;;;;;;;14.43;8.70;;;;;;;5.04;48.30;102192.09;7394154;19;20021;-63
2022/03/08 09:12:43;;;;;;;17.13;8.93;;;;;;;5.12;47.66;102181.72;7393951;19;20340;-61
2022/03/08 09:15:12;;;;;;;14.32;8.73;;;;;;;5.24;47.15;102180.84;7395120;19;20345;-65
2022/03/08 09:17:41;;;;;;;12.50;8.93;;;;;;;5.29;46.67;102176.53;7394397;19;20083;-63
2022/03/08 09:20:10;;;;;;;13.82;8.45;;;;;;;5.46;46.92;102169.59;7394638;19;20018;-62
2022/03/08 09:22:39;;;;;;;13.85;8.73;;;;;;;5.52;45.98;102174.75;7396463;19;20026;-61
2022/03/08 09:25:09;;;;;;;11.15;8.02;;;;;;;5.48;45.79;102169.56;7393758;19;20018;-63
2022/03/08 09:27:41;;;;;;;13.20;8.27;;;;;;;5.53;45.33;102163.50;7394396;19;20443;-63
2022/03/08 09:30:12;;;;;;;13.27;7.97;;;;;;;5.71;45.54;102156.53;7394271;19;20054;-64
2022/03/08 09:32:40;;;;;;;16.52;8.90;;;;;;;5.94;45.06;102158.19;7395067;19;20020;-63
2022/03/08 09:35:10;;;;;;;15.30;8.35;;;;;;;6.10;44.46;102164.25;7395103;19;20011;-63
2022/03/08 09:37:39;;;;;;;12.35;8.20;;;;;;;6.03;44.85;102145.19;7401132;19;20018;-63
2022/03/08 09:40:10;;;;;;;13.48;8.73;;;;;;;6.15;44.13;102158.16;7394602;19;20022;-64
2022/03/08 09:42:41;;;;;;;13.20;8.55;;;;;;;6.24;44.64;102144.22;7394211;19;20018;-64
2022/03/08 09:45:11;;;;;;;11.90;8.13;;;;;;;6.39;44.03;102144.16;7393163;19;20025;-64
2022/03/08 09:47:40;;;;;;;11.73;8.10;;;;;;;6.38;44.10;102142.41;7394716;19;20007;-62
2022/03/08 09:50:11;;;;;;;12.93;8.30;;;;;;;6.38;43.06;102146.78;7393498;19;20015;-62
2022/03/08 09:52:41;;;;;;;15.80;8.60;;;;;;;6.35;42.89;102149.41;7398654;19;20010;-64
2022/03/08 09:55:14;;;;;;;14.85;8.20;;;;;;;6.37;42.95;102142.44;7394384;19;20015;-63
2022/03/08 09:57:46;;;;;;;11.02;8.10;;;;;;;6.45;42.93;102142.38;7394777;19;20014;-63
2022/03/08 10:00:16;;;;;;;13.30;8.10;;;;;;;6.40;43.15;102132.00;7393218;19;20328;-64
2022/03/08 10:02:47;;;;;;;13.18;8.18;;;;;;;6.32;43.83;102133.75;7393589;19;20022;-64
2022/03/08 10:05:18;;;;;;;15.38;8.95;;;;;;;6.53;43.47;102135.38;7395662;19;20478;-64
2022/03/08 10:08:08;;;;;;;11.90;8.60;;;;;;;6.54;43.42;102130.16;7389303;19;20477;-64
2022/03/08 10:10:47;;;;;;;12.13;8.55;;;;;;;6.62;43.35;102148.38;7392652;19;20011;-62
2022/03/08 10:13:19;;;;;;;11.93;8.88;;;;;;;6.56;43.61;102132.75;7394242;19;20103;-64
2022/03/08 10:15:48;;;;;;;11.38;8.05;;;;;;;6.83;43.25;102128.25;7367958;19;20428;-65
2022/03/08 10:18:33;;;;;;;14.35;9.23;;;;;;;7.12;43.51;102121.94;7390875;19;20030;-63
2022/03/08 10:21:02;;;;;;;12.07;8.50;;;;;;;7.28;42.97;102118.31;7393650;19;20476;-64
2022/03/08 10:23:41;;;;;;;10.88;8.40;;;;;;;7.20;42.31;102118.38;7393480;19;20015;-64
2022/03/08 10:26:13;;;;;;;15.68;9.02;;;;;;;7.29;42.96;102120.03;7392517;19;20519;-64
2022/03/08 10:28:49;;;;;;;13.13;8.57;;;;;;;7.41;42.78;102114.69;7391582;19;20049;-64
2022/03/08 10:31:19;;;;;;;12.00;8.95;;;;;;;7.54;42.25;102114.59;7392871;19;20020;-65
2022/03/08 10:33:49;;;;;;;12.20;8.63;;;;;;;7.38;41.54;102113.84;7392044;19;20331;-63
2022/03/08 10:36:21;;;;;;;12.48;8.65;;;;;;;7.49;42.00;102112.00;7395351;19;20486;-63
2022/03/08 10:39:12;;;;;;;12.67;9.30;;;;;;;7.50;41.96;102110.28;7391982;19;20026;-64
2022/03/08 10:41:49;;;;;;;14.02;8.98;;;;;;;7.54;41.85;102112.81;7393089;19;20018;-64
2022/03/08 10:44:34;;;;;;;12.80;8.18;;;;;;;7.51;41.40;102112.88;7392287;19;20485;-63
2022/03/08 10:47:09;;;;;;;10.65;8.40;;;;;;;7.47;40.71;102105.09;7394667;19;20475;-65
2022/03/08 10:49:50;;;;;;;17.52;8.65;;;;;;;7.58;40.96;102096.28;7392833;19;20025;-63
2022/03/08 10:52:19;;;;;;;13.43;8.45;;;;;;;7.44;41.08;102099.00;7394811;19;20019;-64
2022/03/08 10:54:48;;;;;;;16.33;8.88;;;;;;;7.59;41.08;102100.63;7396626;19;20011;-64
2022/03/08 10:57:17;;;;;;;10.73;8.85;;;;;;;7.68;40.69;102093.53;7395199;19;20356;-64
2022/03/08 10:59:58;;;;;;;11.57;8.35;;;;;;;7.63;40.12;102083.16;7394160;19;20022;-64
2022/03/08 11:02:27;;;;;;;13.73;7.80;;;;;;;7.90;40.70;102081.13;7393060;19;20025;-64
2022/03/08 11:05:10;;;;;;;18.02;8.40;;;;;;;7.97;39.40;102082.75;7392632;19;20026;-62
2022/03/08 11:07:40;;;;;;;12.18;8.48;;;;;;;8.10;39.42;102067.78;7392556;19;20010;-64
2022/03/08 11:10:12;;;;;;;11.68;8.00;;;;;;;8.08;39.06;102070.44;7392433;19;20014;-64
2022/03/08 11:12:42;;;;;;;10.73;8.13;;;;;;;7.99;39.28;102057.47;7393129;19;20336;-64
2022/03/08 11:15:16;;;;;;;13.35;8.15;;;;;;;8.02;39.12;102054.81;7395363;19;20011;-63
2022/03/08 11:17:46;;;;;;;10.88;7.75;;;;;;;7.99;38.95;102054.03;7391692;19;20025;-63
2022/03/08 11:20:17;;;;;;;10.32;7.90;;;;;;;8.24;38.62;102044.97;7390383;19;20022;-65
2022/03/08 11:22:47;;;;;;;12.20;7.63;;;;;;;8.32;38.56;102045.72;7391453;19;20439;-65
2022/03/08 11:25:18;;;;;;;13.20;7.15;;;;;;;8.59;37.46;102034.88;7391054;19;20379;-65
2022/03/08 11:27:49;;;;;;;10.55;6.97;;;;;;;8.63;37.89;102050.47;7390971;19;20022;-63
2022/03/08 11:30:23;;;;;;;9.07;6.80;;;;;;;8.54;36.49;102041.91;7393463;19;20025;-66
2022/03/08 11:33:00;;;;;;;11.77;6.60;;;;;;;8.64;36.47;102046.13;7392105;19;20100;-64
2022/03/08 11:35:36;;;;;;;9.98;6.78;;;;;;;8.51;36.20;102037.63;7391182;19;20025;-65